Aérodrome :
LOGIN :

S'inscrire | Disclaimer

   EN    FR    IT 

 










Légende :    VFR   VFR Marginal   IFR   IFR Intensif   IFR Très Intensif
Visi : 
Plafond : 
>= 8 km
>= 3000ft
5 à 8 km
1000 à 3000 ft
1500m à 5 km
500 à 1000 ft
800 à 1500m
200 à 500 ft
< 800m
< 200 ft
Symboles :   Orages  Brouillard  Fortes neiges  Fortes précipitations  Vent > 20 kt
SIGMETs :   Divers  Orages  Givrage  Turbulence  Onde Orograph.  Cendres Volcan.






- Altitude de l'aérodrome : 242 ft
- Code IATA : DUB


EIDW - Dublin

DERNIER METAR :
  • 110000Z 24014G26KT 200V280 9999 FEW017 05/02 Q1002 NOSIG

METARs EXPIRÉS :
  • 102330Z 24016G28KT 210V280 9999 FEW017 05/02 Q1001 NOSIG
  • 102300Z 25015G29KT 210V270 9999 FEW017 05/02 Q1001 NOSIG
  • 102230Z 24016G27KT 200V270 9999 FEW017 05/02 Q1001 NOSIG
  • 102200Z 25015G26KT 210V270 9999 FEW017 05/02 Q1001 NOSIG
  • 102130Z 24013G24KT 200V280 9999 FEW016 SCT040 05/02 Q1001 NOSIG

TAF COR TAF EIDW
Valide du 11 à 00h jusqu'au 12 à 00h UTC


110006Z 1100/1124 23015KT 9999 FEW017 SCT025
TEMPO 1100/1111 24016G27KT
PROB30
TEMPO 1100/1106 24018G32KT
PROB30
TEMPO 1105/1108 7000 -SHRA BKN012 SCT018CB
BECMG 1110/1112 26016KT
TEMPO 1111/1117 25017G28KT
BECMG 1117/1119 25011KT
BECMG 1122/1124 22010KT



MET'MAP, la Météo Aéronautique d'un coup d'oeil ! - Copyright ORBIFLY Décembre 2007 - Disclaimer

ORBIFLY MET'MAP TEAM :

Programmation & Développement : Alexandra Zaïnal
Sur une idée originale de : Baudouin d'Aumeries
Assistance à la programmation : Marc-Olivier Méhu
Soutien technique & logistique : Manuel Goepfert

Contact : metmap@orbifly.com




SOURCES & CREDITS :

   NOAA